Time;durP1;ratioP1;P1;durP2;ratioP2;P2;SDS_P1;SDS_P2;PMS_P1;PMS_P2;Temp;Humidity;BMP_temperature;BMP_pressure;BME280_temperature;BME280_humidity;BME280_pressure;Samples;Min_cycle;Max_cycle;Signal;HPM_P1;HPM_P2
2021/07/25 00:00:15;;;;;;;13.77;10.40;;;19.90;81.30;;;;;;4857488;29;20049;-78
2021/07/25 00:02:50;;;;;;;16.52;12.18;;;19.90;81.30;;;;;;4873785;29;20041;-77
2021/07/25 00:05:24;;;;;;;15.43;11.00;;;19.90;81.40;;;;;;4888726;29;20040;-77
2021/07/25 00:08:04;;;;;;;14.45;11.10;;;19.90;81.50;;;;;;4877005;29;20112;-78
2021/07/25 00:10:40;;;;;;;14.30;10.32;;;19.90;81.60;;;;;;4860632;29;20088;-78
2021/07/25 00:13:16;;;;;;;15.35;11.63;;;19.90;81.60;;;;;;4863277;29;20081;-78
2021/07/25 00:15:52;;;;;;;16.10;11.68;;;19.90;81.80;;;;;;4877955;29;20045;-77
2021/07/25 00:18:49;;;;;;;16.77;12.00;;;19.80;81.90;;;;;;4870911;29;20077;-77
2021/07/25 00:21:57;;;;;;;13.88;9.35;;;19.80;81.90;;;;;;4878817;29;20065;-77
2021/07/25 00:24:37;;;;;;;14.73;10.88;;;19.80;81.80;;;;;;4868010;29;20049;-77
2021/07/25 00:27:12;;;;;;;20.73;13.10;;;19.80;81.90;;;;;;4880452;29;20060;-77
2021/07/25 00:29:47;;;;;;;19.17;14.60;;;19.80;82.10;;;;;;4857590;29;20075;-77
2021/07/25 00:32:15;;;;;;;20.13;11.85;;;19.80;82.10;;;;;;4864354;29;20051;-77
2021/07/25 00:34:49;;;;;;;15.80;11.55;;;19.80;82.20;;;;;;4888464;29;20040;-77
2021/07/25 00:37:16;;;;;;;20.45;14.23;;;19.80;82.20;;;;;;4893051;29;20051;-77
2021/07/25 00:39:43;;;;;;;17.35;12.98;;;19.70;82.50;;;;;;4864235;29;20104;-77
2021/07/25 00:42:11;;;;;;;18.77;14.00;;;19.70;82.50;;;;;;4862633;29;20037;-77
2021/07/25 00:44:39;;;;;;;17.83;13.27;;;19.70;82.60;;;;;;4864791;29;20067;-77
2021/07/25 00:47:13;;;;;;;20.10;14.05;;;19.70;82.70;;;;;;4865847;29;20069;-77
2021/07/25 00:49:56;;;;;;;17.60;13.07;;;19.70;82.70;;;;;;4882243;29;20423;-77
2021/07/25 00:52:23;;;;;;;17.23;12.07;;;19.70;82.80;;;;;;4862287;29;20045;-77
2021/07/25 00:54:51;;;;;;;17.38;12.40;;;19.70;82.70;;;;;;4883830;29;20859;-77
2021/07/25 00:57:25;;;;;;;16.52;12.00;;;19.70;82.70;;;;;;4890423;29;20049;-77
2021/07/25 01:00:02;;;;;;;16.08;11.85;;;19.70;82.70;;;;;;4866230;29;20074;-77
2021/07/25 01:02:34;;;;;;;;;;;19.70;82.80;;;;;;4884282;29;20051;-77
2021/07/25 01:05:12;;;;;;;14.75;11.10;;;19.70;82.70;;;;;;4888549;29;19939;-77
2021/07/25 01:08:17;;;;;;;16.33;12.98;;;19.70;82.90;;;;;;4855159;29;20097;-78
2021/07/25 01:10:56;;;;;;;13.88;10.98;;;19.70;82.90;;;;;;4890541;29;20048;-77
2021/07/25 01:13:31;;;;;;;18.20;12.27;;;19.60;83.00;;;;;;4884686;29;20059;-78
2021/07/25 01:16:19;;;;;;;18.02;13.07;;;19.60;83.00;;;;;;4864670;29;20551;-77
2021/07/25 01:18:52;;;;;;;16.35;11.63;;;19.60;83.10;;;;;;4846924;29;20108;-77
2021/07/25 01:21:25;;;;;;;16.30;11.80;;;19.60;83.10;;;;;;4860452;29;20090;-77
2021/07/25 01:23:59;;;;;;;16.25;11.57;;;19.60;83.20;;;;;;4846326;29;20106;-77
2021/07/25 01:26:29;;;;;;;14.40;10.60;;;19.60;83.20;;;;;;4860694;29;20067;-78
2021/07/25 01:29:29;;;;;;;16.55;10.73;;;19.50;83.20;;;;;;4855506;29;20073;-77
2021/07/25 01:32:06;;;;;;;16.13;11.32;;;19.60;83.30;;;;;;4855615;29;20099;-77
2021/07/25 01:34:36;;;;;;;17.83;13.25;;;19.50;83.30;;;;;;4855968;29;20871;-77
2021/07/25 01:37:18;;;;;;;16.38;10.55;;;19.50;83.30;;;;;;4843591;29;20133;-77
2021/07/25 01:39:54;;;;;;;14.02;10.23;;;19.50;83.30;;;;;;4847670;29;20395;-77
2021/07/25 01:43:29;;;;;;;16.27;9.98;;;19.60;83.50;;;;;;4859563;29;20132;-77
2021/07/25 01:46:00;;;;;;;17.08;12.95;;;19.50;83.40;;;;;;4844528;29;20544;-77
2021/07/25 01:48:30;;;;;;;17.35;12.05;;;19.50;83.50;;;;;;4843702;29;20057;-78
2021/07/25 01:51:09;;;;;;;16.80;12.32;;;19.50;83.80;;;;;;4855212;29;20062;-77
2021/07/25 01:53:59;;;;;;;15.65;12.52;;;19.40;83.70;;;;;;4849252;29;20057;-78
2021/07/25 01:56:55;;;;;;;17.23;12.10;;;19.40;83.70;;;;;;4861282;29;20406;-78
2021/07/25 01:59:47;;;;;;;14.43;10.40;;;19.50;83.70;;;;;;4854343;29;20049;-78
2021/07/25 02:02:16;;;;;;;14.75;11.02;;;19.50;83.60;;;;;;4834453;29;20258;-77
2021/07/25 02:04:56;;;;;;;17.10;12.60;;;19.50;83.80;;;;;;4827135;29;20115;-77
2021/07/25 02:07:28;;;;;;;14.60;10.10;;;19.50;83.80;;;;;;4820479;29;20054;-77
2021/07/25 02:10:53;;;;;;;13.25;10.23;;;19.50;83.80;;;;;;4933075;29;20039;-77
2021/07/25 02:13:35;;;;;;;13.77;10.15;;;19.40;83.80;;;;;;4886442;29;20047;-77
2021/07/25 02:16:26;;;;;;;13.15;10.00;;;19.40;83.80;;;;;;4898172;29;20134;-77
2021/07/25 02:19:18;;;;;;;12.38;9.20;;;19.40;83.90;;;;;;4900689;29;20047;-78
2021/07/25 02:21:45;;;;;;;13.32;9.98;;;19.40;83.90;;;;;;4905082;29;20048;-78
2021/07/25 02:24:12;;;;;;;14.30;9.95;;;19.40;83.90;;;;;;4904410;29;20412;-78
2021/07/25 02:26:39;;;;;;;14.77;11.25;;;19.40;84.00;;;;;;4908182;29;20054;-78
2021/07/25 02:29:06;;;;;;;12.90;9.50;;;19.40;84.00;;;;;;4888066;29;20043;-77
2021/07/25 02:31:33;;;;;;;13.27;9.73;;;19.40;84.10;;;;;;4900223;29;20146;-77
2021/07/25 02:34:03;;;;;;;15.82;11.35;;;19.30;84.10;;;;;;4916935;29;20044;-78
2021/07/25 02:36:30;;;;;;;16.73;12.35;;;19.30;84.20;;;;;;4902005;29;20039;-78
2021/07/25 02:38:57;;;;;;;15.57;11.48;;;19.30;84.30;;;;;;4926843;29;20040;-77
2021/07/25 02:41:24;;;;;;;12.85;9.52;;;19.30;84.40;;;;;;4918417;29;20045;-77
2021/07/25 02:43:51;;;;;;;16.38;11.75;;;19.20;84.40;;;;;;4890555;29;20121;-78
2021/07/25 02:46:30;;;;;;;13.45;9.77;;;19.20;84.50;;;;;;4935377;29;20055;-77
2021/07/25 02:49:16;;;;;;;13.70;9.80;;;19.20;84.60;;;;;;4912294;29;20036;-77
2021/07/25 02:52:01;;;;;;;14.32;10.80;;;19.20;84.70;;;;;;4899354;29;20048;-78
2021/07/25 02:54:47;;;;;;;15.63;11.05;;;19.20;84.60;;;;;;4905059;29;20582;-77
2021/07/25 02:57:19;;;;;;;11.68;9.32;;;19.20;84.70;;;;;;4915328;29;20075;-77
2021/07/25 02:59:50;;;;;;;14.15;9.90;;;19.10;84.70;;;;;;4893648;29;20056;-78
2021/07/25 03:02:29;;;;;;;14.88;9.70;;;19.10;84.70;;;;;;4901442;29;20071;-77
2021/07/25 03:05:01;;;;;;;15.25;10.23;;;19.20;84.80;;;;;;4911851;29;20044;-77
2021/07/25 03:07:34;;;;;;;12.87;9.63;;;19.20;84.70;;;;;;4918319;29;20036;-77
2021/07/25 03:10:17;;;;;;;12.40;9.15;;;19.20;84.70;;;;;;4932800;29;20062;-77
2021/07/25 03:12:54;;;;;;;14.65;10.65;;;19.20;84.80;;;;;;4947414;28;20043;-77
2021/07/25 03:15:22;;;;;;;15.20;11.10;;;19.10;84.80;;;;;;4933664;29;20099;-77
2021/07/25 03:17:58;;;;;;;13.68;10.50;;;19.10;84.80;;;;;;4929111;29;20047;-77
2021/07/25 03:20:32;;;;;;;15.50;10.10;;;19.10;84.90;;;;;;4962782;28;20513;-77
2021/07/25 03:23:03;;;;;;;12.55;9.57;;;19.00;85.00;;;;;;4954697;29;20050;-78
2021/07/25 03:25:38;;;;;;;14.57;10.25;;;19.00;85.10;;;;;;4922170;29;20043;-78
2021/07/25 03:28:12;;;;;;;13.15;10.00;;;18.90;85.10;;;;;;4922854;29;20066;-77
2021/07/25 03:30:55;;;;;;;13.73;9.20;;;18.90;85.20;;;;;;4907788;29;20051;-77
2021/07/25 03:33:29;;;;;;;16.52;10.75;;;18.90;85.30;;;;;;4935945;28;20048;-78
2021/07/25 03:36:06;;;;;;;13.63;9.70;;;18.90;85.30;;;;;;4932827;29;20111;-77
2021/07/25 03:38:37;;;;;;;12.68;9.20;;;18.90;85.30;;;;;;4940692;28;20049;-77
2021/07/25 03:41:08;;;;;;;13.15;8.60;;;18.90;85.40;;;;;;4913264;29;20044;-77
2021/07/25 03:43:48;;;;;;;13.05;9.70;;;18.90;85.30;;;;;;4919450;29;20103;-77
2021/07/25 03:46:17;;;;;;;12.07;8.27;;;18.90;85.50;;;;;;4932157;29;20506;-77
2021/07/25 03:48:49;;;;;;;13.63;8.88;;;18.90;85.40;;;;;;4950918;29;20506;-77
2021/07/25 03:51:24;;;;;;;12.30;8.73;;;18.90;85.40;;;;;;4935545;29;20090;-77
2021/07/25 03:54:23;;;;;;;12.32;8.80;;;18.90;85.40;;;;;;4862792;29;20056;-77
2021/07/25 03:56:52;;;;;;;12.40;9.10;;;18.90;85.40;;;;;;4928067;29;20039;-77
2021/07/25 03:59:19;;;;;;;13.27;9.07;;;18.90;85.50;;;;;;4935137;29;20098;-77
2021/07/25 04:02:18;;;;;;;12.70;9.27;;;18.80;85.50;;;;;;4952831;29;20043;-77
2021/07/25 04:05:24;;;;;;;13.82;9.57;;;18.80;85.40;;;;;;4935662;28;20055;-77
2021/07/25 04:08:11;;;;;;;12.00;8.45;;;18.80;85.50;;;;;;4894930;29;20084;-77
2021/07/25 04:11:45;;;;;;;12.13;9.48;;;18.80;85.70;;;;;;4911441;29;20048;-77
2021/07/25 04:14:12;;;;;;;10.93;8.18;;;18.70;85.60;;;;;;4906490;29;20066;-77
2021/07/25 04:17:41;;;;;;;12.43;8.90;;;18.70;85.80;;;;;;4901834;29;20203;-77
2021/07/25 04:20:15;;;;;;;12.93;8.95;;;18.70;85.80;;;;;;4904656;29;20059;-77
2021/07/25 04:23:01;;;;;;;12.15;8.27;;;18.60;85.80;;;;;;4908090;29;20072;-77
2021/07/25 04:25:33;;;;;;;11.88;8.27;;;18.70;85.90;;;;;;4923281;29;20056;-77
2021/07/25 04:28:03;;;;;;;11.80;7.87;;;18.70;85.80;;;;;;4884023;29;20400;-77
2021/07/25 04:30:54;;;;;;;11.25;7.95;;;18.70;85.80;;;;;;4892578;29;20285;-77
2021/07/25 04:33:33;;;;;;;12.65;9.52;;;18.70;85.70;;;;;;4915036;29;20062;-77
2021/07/25 04:36:24;;;;;;;10.77;8.07;;;18.70;85.70;;;;;;4877169;29;20040;-77
2021/07/25 04:38:59;;;;;;;12.10;8.15;;;18.70;85.70;;;;;;4910390;29;20047;-77
2021/07/25 04:41:42;;;;;;;8.73;6.75;;;18.70;85.60;;;;;;4962866;28;20054;-77
2021/07/25 04:45:07;;;;;;;10.25;7.60;;;18.80;85.50;;;;;;4957782;29;20051;-77
2021/07/25 04:48:20;;;;;;;9.45;7.10;;;18.80;85.40;;;;;;4911660;29;20431;-77
2021/07/25 04:51:05;;;;;;;9.32;7.20;;;18.90;85.30;;;;;;4931755;29;20411;-77
2021/07/25 04:53:43;;;;;;;11.10;7.53;;;19.00;85.20;;;;;;4938219;29;20503;-77
2021/07/25 04:56:24;;;;;;;11.23;8.02;;;19.10;85.10;;;;;;4942063;29;20130;-77
2021/07/25 04:59:25;;;;;;;11.48;8.07;;;19.20;85.00;;;;;;4949762;29;20051;-77
2021/07/25 05:02:13;;;;;;;9.88;6.93;;;19.30;84.70;;;;;;4954027;29;20051;-77
2021/07/25 05:05:17;;;;;;;10.88;7.15;;;19.40;84.60;;;;;;4934045;29;20130;-77
2021/07/25 05:11:41;;;;;;;10.02;7.20;;;19.40;84.20;;;;;;509183;27;20324;-77
2021/07/25 05:15:25;;;;;;;10.45;6.72;;;19.40;84.10;;;;;;4935378;29;20554;-77
2021/07/25 05:18:52;;;;;;;9.48;6.20;;;19.40;84.10;;;;;;4844635;29;20099;-77
2021/07/25 05:26:27;;;;;;;8.75;6.05;;;19.40;84.00;;;;;;4884727;29;20113;-77
2021/07/25 05:34:11;;;;;;;9.93;6.20;;;19.40;84.00;;;;;;4815988;29;20093;-77
2021/07/25 05:37:00;;;;;;;8.07;5.00;;;19.40;83.90;;;;;;4805147;29;20082;-77
2021/07/25 05:39:35;;;;;;;7.13;4.80;;;19.40;83.80;;;;;;4804531;29;20059;-76
2021/07/25 05:42:14;;;;;;;8.45;5.93;;;19.40;83.70;;;;;;4850275;29;20080;-76
2021/07/25 05:44:44;;;;;;;9.93;6.75;;;19.60;83.50;;;;;;4849456;29;20069;-77
2021/07/25 05:47:17;;;;;;;8.73;5.40;;;19.60;83.30;;;;;;4877303;29;20057;-76
2021/07/25 05:49:51;;;;;;;8.70;5.93;;;19.70;83.10;;;;;;4880775;29;20210;-76
2021/07/25 05:52:26;;;;;;;7.22;4.78;;;19.80;82.90;;;;;;4864553;29;20054;-76
2021/07/25 05:54:59;;;;;;;7.00;4.28;;;19.90;82.60;;;;;;4864210;29;20058;-76
2021/07/25 05:57:54;;;;;;;7.32;4.60;;;20.10;82.30;;;;;;4869741;29;20060;-76
2021/07/25 06:01:07;;;;;;;7.32;5.32;;;20.20;81.80;;;;;;4816187;29;20057;-76
2021/07/25 06:04:15;;;;;;;7.10;4.47;;;20.40;81.50;;;;;;4821949;29;20139;-78
2021/07/25 06:06:46;;;;;;;5.88;4.00;;;20.50;81.10;;;;;;4838212;29;20061;-77
2021/07/25 06:09:15;;;;;;;6.32;4.03;;;20.60;81.00;;;;;;4854974;29;20057;-77
2021/07/25 06:11:43;;;;;;;7.65;4.57;;;20.70;81.00;;;;;;4844934;29;20053;-77
2021/07/25 06:14:28;;;;;;;6.65;4.55;;;20.70;80.70;;;;;;4860618;29;20045;-77
2021/07/25 06:17:09;;;;;;;7.03;4.80;;;20.90;80.40;;;;;;4829047;29;20050;-78
2021/07/25 06:19:41;;;;;;;7.22;5.35;;;21.00;80.10;;;;;;4858589;29;20136;-77
2021/07/25 06:22:10;;;;;;;8.05;5.18;;;21.00;79.90;;;;;;4848874;29;20531;-77
2021/07/25 06:24:59;;;;;;;6.35;3.92;;;21.10;79.70;;;;;;4885670;29;20067;-77
2021/07/25 06:28:08;;;;;;;7.00;4.70;;;21.20;79.50;;;;;;4902505;29;20168;-77
2021/07/25 06:30:57;;;;;;;6.63;4.47;;;21.30;79.30;;;;;;4852203;29;20190;-77
2021/07/25 06:33:28;;;;;;;6.85;4.00;;;21.20;79.30;;;;;;4854589;29;20064;-77
2021/07/25 06:35:57;;;;;;;6.55;4.75;;;21.20;79.30;;;;;;4837590;29;20195;-77
2021/07/25 06:38:24;;;;;;;6.05;4.28;;;21.20;79.20;;;;;;4856203;29;20038;-76
2021/07/25 06:40:54;;;;;;;6.28;4.00;;;21.20;79.30;;;;;;4856820;29;20112;-77
2021/07/25 06:43:21;;;;;;;5.40;3.10;;;21.10;79.20;;;;;;4857221;29;20136;-77
2021/07/25 06:45:53;;;;;;;5.03;3.20;;;21.10;79.40;;;;;;4857954;29;20093;-79
2021/07/25 06:48:21;;;;;;;5.05;3.17;;;21.10;80.10;;;;;;4840301;29;20467;-80
2021/07/25 06:50:53;;;;;;;5.30;3.13;;;21.10;79.50;;;;;;4852982;29;20050;-79
2021/07/25 06:53:21;;;;;;;5.85;3.45;;;21.10;79.60;;;;;;4832987;29;20438;-78
2021/07/25 06:55:50;;;;;;;7.35;3.25;;;21.10;79.50;;;;;;4859723;29;20084;-77
2021/07/25 06:58:17;;;;;;;5.68;4.05;;;21.20;79.20;;;;;;4840156;29;20050;-77
2021/07/25 07:00:46;;;;;;;6.22;4.20;;;21.20;78.90;;;;;;4848082;29;20053;-80
2021/07/25 07:03:17;;;;;;;5.25;3.58;;;21.30;78.80;;;;;;4909760;29;20044;-79
2021/07/25 07:05:45;;;;;;;5.75;3.80;;;21.30;78.70;;;;;;4893165;29;20062;-79
2021/07/25 07:08:12;;;;;;;4.95;3.25;;;21.40;78.60;;;;;;4902090;29;20064;-77
2021/07/25 07:10:41;;;;;;;6.03;3.28;;;21.50;78.50;;;;;;4897247;29;20098;-76
2021/07/25 07:13:11;;;;;;;5.25;3.17;;;21.60;78.20;;;;;;4894912;29;20056;-77
2021/07/25 07:15:41;;;;;;;4.28;2.53;;;21.60;78.00;;;;;;4925734;29;20041;-78
2021/07/25 07:18:08;;;;;;;5.05;2.85;;;21.70;78.60;;;;;;4900979;29;20491;-77
2021/07/25 07:20:36;;;;;;;4.97;2.78;;;21.90;77.70;;;;;;4902921;29;20047;-79
2021/07/25 07:23:06;;;;;;;4.47;2.35;;;22.00;77.60;;;;;;4901306;29;20036;-76
2021/07/25 07:25:38;;;;;;;4.75;2.95;;;22.10;77.40;;;;;;4925062;29;20127;-76
2021/07/25 07:28:06;;;;;;;3.72;2.10;;;22.20;77.10;;;;;;4922691;29;20044;-77
2021/07/25 07:30:34;;;;;;;4.45;2.50;;;22.20;77.00;;;;;;4902092;29;20032;-76
2021/07/25 07:33:06;;;;;;;4.63;3.15;;;22.30;76.80;;;;;;4930849;29;20092;-77
2021/07/25 07:35:33;;;;;;;6.55;3.55;;;22.30;76.60;;;;;;4915630;29;20500;-76
2021/07/25 07:38:01;;;;;;;4.43;2.67;;;22.40;76.40;;;;;;4891698;29;20043;-78
2021/07/25 07:40:28;;;;;;;5.07;2.67;;;22.40;76.30;;;;;;4905887;29;20453;-80
2021/07/25 07:42:56;;;;;;;5.95;3.60;;;22.40;76.30;;;;;;4890122;29;20075;-77
2021/07/25 07:45:26;;;;;;;5.88;3.13;;;22.50;76.00;;;;;;4922169;29;20447;-77
2021/07/25 07:47:53;;;;;;;4.25;2.53;;;22.60;75.90;;;;;;4930807;29;20056;-78
2021/07/25 07:50:20;;;;;;;4.07;2.47;;;22.60;75.80;;;;;;4902133;29;20043;-78
2021/07/25 07:52:50;;;;;;;5.88;2.85;;;22.70;75.50;;;;;;4884163;29;20048;-78
2021/07/25 07:55:17;;;;;;;4.25;3.10;;;22.80;75.30;;;;;;4910374;29;20161;-79
2021/07/25 07:57:45;;;;;;;6.93;3.17;;;22.90;75.10;;;;;;4916703;29;20071;-79
2021/07/25 08:00:13;;;;;;;3.75;2.25;;;22.90;75.00;;;;;;4895708;29;20103;-77
2021/07/25 08:02:42;;;;;;;3.80;2.55;;;23.00;74.90;;;;;;4917236;29;20138;-78
2021/07/25 08:05:10;;;;;;;5.25;3.10;;;23.10;74.70;;;;;;4933697;29;20050;-77
2021/07/25 08:07:38;;;;;;;4.03;2.47;;;23.20;74.20;;;;;;4896408;29;20044;-77
2021/07/25 08:10:07;;;;;;;4.20;2.50;;;23.20;74.00;;;;;;4893708;29;20123;-79
2021/07/25 08:12:34;;;;;;;5.88;2.53;;;23.20;74.00;;;;;;4931367;29;20056;-79
2021/07/25 08:15:02;;;;;;;4.20;2.60;;;23.30;73.40;;;;;;4885823;29;20071;-78
2021/07/25 08:17:29;;;;;;;3.47;2.13;;;23.30;73.20;;;;;;4900898;29;20048;-77
2021/07/25 08:19:56;;;;;;;3.22;2.17;;;23.30;73.20;;;;;;4893235;29;20492;-77
2021/07/25 08:22:23;;;;;;;4.53;2.53;;;23.50;73.30;;;;;;4901550;29;20130;-77
2021/07/25 08:24:50;;;;;;;3.47;1.85;;;23.60;72.70;;;;;;4917305;29;20546;-77
2021/07/25 08:27:18;;;;;;;4.18;2.15;;;23.60;72.40;;;;;;4916797;29;20048;-77
2021/07/25 08:29:46;;;;;;;3.25;1.75;;;23.70;72.50;;;;;;4880938;29;20055;-78
2021/07/25 08:32:13;;;;;;;3.90;1.70;;;23.90;72.40;;;;;;4885808;29;20035;-76
2021/07/25 08:34:40;;;;;;;3.13;1.20;;;24.00;72.20;;;;;;4916146;29;20043;-76
2021/07/25 08:37:07;;;;;;;3.05;1.60;;;24.10;72.10;;;;;;4884909;29;20415;-76
2021/07/25 08:39:34;;;;;;;3.58;1.60;;;24.20;71.90;;;;;;4910160;29;20119;-76
2021/07/25 08:42:09;;;;;;;3.70;1.60;;;24.40;71.70;;;;;;4884224;29;20106;-78
2021/07/25 08:44:55;;;;;;;2.78;1.38;;;24.50;71.40;;;;;;4897566;29;20421;-78
2021/07/25 08:47:25;;;;;;;3.10;1.40;;;24.60;71.20;;;;;;4902174;29;20403;-77
2021/07/25 08:49:57;;;;;;;3.28;1.75;;;24.70;71.20;;;;;;4914428;29;20052;-78
2021/07/25 08:52:30;;;;;;;3.13;1.50;;;24.90;70.60;;;;;;4897028;29;20054;-78
2021/07/25 08:54:59;;;;;;;2.95;1.85;;;24.90;70.50;;;;;;4889571;29;20048;-81
2021/07/25 08:57:32;;;;;;;2.75;1.45;;;24.90;70.60;;;;;;4913120;29;20063;-84
2021/07/25 09:00:00;;;;;;;2.88;1.40;;;24.90;70.70;;;;;;4916402;29;20051;-78
2021/07/25 09:02:29;;;;;;;2.90;1.60;;;24.80;70.80;;;;;;4911946;29;20040;-77
2021/07/25 09:04:58;;;;;;;3.88;1.58;;;24.80;70.80;;;;;;4935019;29;20071;-80
2021/07/25 09:07:30;;;;;;;3.35;1.52;;;24.80;70.80;;;;;;4866910;29;20448;-81
2021/07/25 09:10:04;;;;;;;3.70;2.42;;;24.80;70.70;;;;;;4905164;29;20068;-82
2021/07/25 09:12:32;;;;;;;3.17;1.95;;;24.80;69.90;;;;;;4902909;29;20048;-80
2021/07/25 09:15:05;;;;;;;3.72;2.15;;;24.70;70.10;;;;;;4902697;29;20043;-82
2021/07/25 09:17:32;;;;;;;3.85;2.20;;;24.70;69.90;;;;;;4919739;29;20070;-82
2021/07/25 09:20:17;;;;;;;3.50;2.13;;;24.80;69.60;;;;;;4904696;29;20055;-81
2021/07/25 09:22:47;;;;;;;3.78;2.55;;;24.90;69.30;;;;;;4902017;29;20050;-81
2021/07/25 09:25:21;;;;;;;4.65;2.88;;;25.00;68.90;;;;;;4904813;29;20040;-81
2021/07/25 09:27:48;;;;;;;3.72;1.83;;;25.00;68.80;;;;;;4902553;29;20567;-80
2021/07/25 09:30:19;;;;;;;3.60;2.22;;;25.20;68.90;;;;;;4919810;29;20042;-77
2021/07/25 09:32:48;;;;;;;3.63;1.92;;;25.30;68.60;;;;;;4921250;29;20099;-78
2021/07/25 09:35:34;;;;;;;5.05;3.00;;;25.50;68.40;;;;;;4921093;29;20038;-81
2021/07/25 09:38:04;;;;;;;4.60;2.85;;;25.60;67.10;;;;;;4920409;29;20492;-80
2021/07/25 09:40:40;;;;;;;3.65;2.05;;;25.60;67.40;;;;;;4932931;29;20051;-81
2021/07/25 09:43:12;;;;;;;2.70;1.75;;;25.70;67.40;;;;;;4886274;29;20048;-82
2021/07/25 09:45:50;;;;;;;4.15;1.98;;;25.80;67.30;;;;;;4899570;29;20570;-81
2021/07/25 09:48:33;;;;;;;4.28;2.15;;;26.00;66.40;;;;;;4900399;29;20051;-83
2021/07/25 09:51:22;;;;;;;4.85;2.25;;;26.10;66.40;;;;;;4915235;29;20059;-81
2021/07/25 09:53:53;;;;;;;3.72;1.77;;;26.10;66.10;;;;;;4934096;29;20135;-80
2021/07/25 09:56:26;;;;;;;2.50;1.42;;;26.20;66.20;;;;;;4915182;29;20051;-80
2021/07/25 09:58:55;;;;;;;2.70;1.52;;;26.40;66.00;;;;;;4919767;29;20059;-81
2021/07/25 10:01:37;;;;;;;3.67;1.65;;;26.60;65.60;;;;;;4904121;29;20049;-85
2021/07/25 10:04:13;;;;;;;4.95;2.50;;;26.80;64.40;;;;;;4917816;29;20131;-81
2021/07/25 10:06:42;;;;;;;3.47;2.08;;;26.90;64.30;;;;;;4934569;29;20103;-82
2021/07/25 10:09:12;;;;;;;3.28;1.67;;;27.00;64.30;;;;;;4932048;29;20777;-84
2021/07/25 10:11:58;;;;;;;3.30;1.95;;;27.20;64.00;;;;;;4933064;29;20055;-82
2021/07/25 10:14:29;;;;;;;3.97;2.13;;;27.50;63.60;;;;;;4912682;29;20044;-84
2021/07/25 10:17:01;;;;;;;3.58;2.30;;;27.60;62.60;;;;;;4899488;29;20460;-83
2021/07/25 10:19:42;;;;;;;2.78;1.75;;;27.60;62.80;;;;;;4915182;29;20044;-84
2021/07/25 10:22:11;;;;;;;2.97;1.80;;;27.60;62.60;;;;;;4918564;29;20055;-86
2021/07/25 10:24:39;;;;;;;4.22;2.80;;;27.60;62.70;;;;;;4904141;29;20455;-80
2021/07/25 10:27:07;;;;;;;4.60;2.90;;;27.60;61.90;;;;;;4915426;29;20048;-82
2021/07/25 10:29:38;;;;;;;3.42;2.05;;;27.30;61.90;;;;;;4908889;29;20099;-82
2021/07/25 10:32:10;;;;;;;3.08;1.88;;;27.10;62.50;;;;;;4919933;29;20438;-82
2021/07/25 10:34:39;;;;;;;2.97;2.20;;;27.00;62.90;;;;;;4889400;29;20043;-82
2021/07/25 10:37:09;;;;;;;3.58;2.30;;;26.90;63.10;;;;;;4939051;29;20047;-79
2021/07/25 10:39:37;;;;;;;5.60;2.78;;;27.00;62.80;;;;;;4897942;29;20044;-77
2021/07/25 10:42:05;;;;;;;4.15;2.33;;;27.10;62.40;;;;;;4917657;29;20076;-86
2021/07/25 10:44:33;;;;;;;3.88;2.35;;;27.10;62.10;;;;;;4903392;29;20131;-80
2021/07/25 10:47:22;;;;;;;3.70;2.10;;;27.20;62.00;;;;;;4917531;29;20044;-83
2021/07/25 10:50:15;;;;;;;3.35;2.08;;;27.10;62.00;;;;;;4916148;29;20484;-87
2021/07/25 10:53:00;;;;;;;4.70;2.55;;;26.80;62.20;;;;;;4903048;29;20067;-84
2021/07/25 10:55:38;;;;;;;3.08;2.35;;;26.70;62.60;;;;;;4911614;29;20095;-84
2021/07/25 10:58:09;;;;;;;3.33;1.83;;;26.60;62.70;;;;;;4897778;29;20399;-89
2021/07/25 11:00:41;;;;;;;3.75;2.13;;;26.40;62.80;;;;;;4912703;29;20412;-84
2021/07/25 11:03:10;;;;;;;4.00;2.45;;;26.20;62.90;;;;;;4917597;29;20168;-84
2021/07/25 11:06:05;;;;;;;3.55;1.95;;;26.20;63.00;;;;;;4919037;29;20079;-80
2021/07/25 11:08:50;;;;;;;3.10;1.55;;;26.30;63.10;;;;;;4907280;29;20075;-81
2021/07/25 11:11:26;;;;;;;4.35;2.05;;;26.50;62.90;;;;;;4897812;29;20039;-78
2021/07/25 11:13:54;;;;;;;3.58;2.35;;;26.50;62.20;;;;;;4928796;29;20048;-81
2021/07/25 11:16:30;;;;;;;4.03;1.90;;;26.50;62.40;;;;;;4902621;29;20059;-86
2021/07/25 11:19:20;;;;;;;3.13;1.88;;;26.40;62.30;;;;;;4928601;29;20055;-80
2021/07/25 11:21:53;;;;;;;4.47;1.92;;;26.40;62.40;;;;;;4938774;29;20087;-79
2021/07/25 11:24:20;;;;;;;3.63;1.90;;;26.30;63.30;;;;;;4916283;29;20044;-80
2021/07/25 11:27:08;;;;;;;2.78;1.88;;;26.30;62.80;;;;;;4913949;29;20101;-81
2021/07/25 11:29:36;;;;;;;2.58;1.55;;;26.40;62.80;;;;;;4915530;29;20056;-77
2021/07/25 11:32:04;;;;;;;2.90;1.77;;;26.50;62.90;;;;;;4918109;29;20050;-76
2021/07/25 11:34:33;;;;;;;2.22;1.25;;;26.60;62.80;;;;;;4901086;29;20174;-76
2021/07/25 11:37:08;;;;;;;3.30;1.95;;;26.60;62.70;;;;;;4918254;29;20063;-77
2021/07/25 11:39:56;;;;;;;2.30;1.42;;;26.60;62.70;;;;;;4896769;29;20044;-79
2021/07/25 11:42:23;;;;;;;3.03;1.65;;;26.60;62.70;;;;;;4890319;29;20118;-79
2021/07/25 11:44:51;;;;;;;3.50;1.98;;;26.70;62.60;;;;;;4932349;29;20436;-78
2021/07/25 11:47:26;;;;;;;4.32;1.80;;;27.10;61.90;;;;;;4912585;29;20051;-77
2021/07/25 11:49:54;;;;;;;2.72;1.80;;;27.50;61.10;;;;;;4902534;29;20051;-77
2021/07/25 11:52:21;;;;;;;2.65;1.80;;;27.90;60.30;;;;;;4891732;29;20559;-77
2021/07/25 11:54:49;;;;;;;3.40;1.70;;;27.90;60.10;;;;;;4881360;29;20035;-78
2021/07/25 11:57:20;;;;;;;2.97;1.55;;;27.70;60.10;;;;;;4898730;29;20051;-79
2021/07/25 11:59:52;;;;;;;2.40;1.15;;;27.60;60.70;;;;;;4930019;29;20043;-77
2021/07/25 12:02:34;;;;;;;2.60;1.23;;;27.70;60.70;;;;;;4930285;29;20050;-78
2021/07/25 12:05:02;;;;;;;2.20;1.23;;;28.40;59.70;;;;;;4896130;29;20051;-78
2021/07/25 12:07:49;;;;;;;2.92;1.55;;;28.60;59.10;;;;;;4911492;29;20047;-72
2021/07/25 12:10:30;;;;;;;2.45;1.50;;;28.90;59.20;;;;;;4910732;29;20043;-74
2021/07/25 12:13:06;;;;;;;2.83;1.70;;;29.30;58.20;;;;;;4913481;29;20075;-75
2021/07/25 12:15:33;;;;;;;4.65;2.00;;;28.90;58.10;;;;;;4912109;29;20063;-74
2021/07/25 12:18:01;;;;;;;2.42;1.75;;;28.70;58.30;;;;;;4895342;29;20091;-73
2021/07/25 12:20:28;;;;;;;3.20;1.88;;;28.90;58.00;;;;;;4910299;29;20044;-74
2021/07/25 12:23:06;;;;;;;3.33;1.65;;;28.50;58.20;;;;;;4909753;29;20036;-72
2021/07/25 12:25:46;;;;;;;2.20;1.45;;;28.20;58.40;;;;;;4875501;29;20056;-72
2021/07/25 12:28:15;;;;;;;3.47;1.70;;;28.70;58.10;;;;;;4911236;29;20055;-72
2021/07/25 12:30:50;;;;;;;3.13;1.80;;;29.60;57.10;;;;;;4909876;29;20044;-72
2021/07/25 12:33:32;;;;;;;2.30;1.48;;;29.70;56.60;;;;;;4925343;29;20448;-72
2021/07/25 12:36:17;;;;;;;3.45;1.50;;;29.10;56.70;;;;;;4926138;29;20051;-72
2021/07/25 12:38:44;;;;;;;2.65;1.20;;;28.60;57.70;;;;;;4928060;29;20035;-73
2021/07/25 12:41:11;;;;;;;3.67;1.60;;;28.30;58.20;;;;;;4928984;29;20122;-72
2021/07/25 12:43:38;;;;;;;2.88;1.40;;;28.00;58.30;;;;;;4899297;29;20415;-73
2021/07/25 12:46:08;;;;;;;1.80;0.98;;;28.20;58.30;;;;;;4918062;29;20123;-72
2021/07/25 12:48:36;;;;;;;2.15;0.90;;;28.40;58.10;;;;;;4916107;29;20051;-72
2021/07/25 12:53:53;;;;;;;2.53;1.15;;;28.40;57.70;;;;;;4932034;29;20714;-72
2021/07/25 12:56:22;;;;;;;2.40;1.15;;;29.40;56.90;;;;;;4914850;29;20044;-72
2021/07/25 12:58:53;;;;;;;2.95;1.60;;;30.10;55.30;;;;;;4931284;29;20040;-72
2021/07/25 13:04:00;;;;;;;2.75;1.63;;;29.10;55.30;;;;;;4931623;29;20372;-72
2021/07/25 13:06:27;;;;;;;2.40;1.50;;;28.70;56.10;;;;;;4916006;29;20047;-72
2021/07/25 13:08:56;;;;;;;3.72;1.60;;;28.30;56.60;;;;;;4933316;29;20090;-73
2021/07/25 13:11:25;;;;;;;3.63;1.60;;;28.10;57.70;;;;;;4898543;29;20107;-73
2021/07/25 13:13:55;;;;;;;1.92;0.98;;;27.90;57.60;;;;;;4911156;29;20052;-74
2021/07/25 13:16:23;;;;;;;2.20;1.10;;;27.90;57.90;;;;;;4927997;29;20048;-72
2021/07/25 13:18:55;;;;;;;2.78;1.20;;;27.90;57.80;;;;;;4932535;29;20051;-74
2021/07/25 13:21:23;;;;;;;2.40;1.10;;;28.80;56.90;;;;;;4931040;29;20496;-74
2021/07/25 13:23:51;;;;;;;2.83;1.30;;;30.20;55.10;;;;;;4898041;29;20088;-74
2021/07/25 13:26:19;;;;;;;2.10;1.20;;;31.20;53.00;;;;;;4932951;29;20091;-74
2021/07/25 13:28:46;;;;;;;3.05;1.20;;;31.20;52.50;;;;;;4934332;29;20043;-74
2021/07/25 13:31:14;;;;;;;2.13;1.00;;;30.60;53.10;;;;;;4917061;29;20107;-75
2021/07/25 13:33:42;;;;;;;2.20;1.10;;;30.20;54.00;;;;;;4932740;29;20504;-74
2021/07/25 13:36:10;;;;;;;2.00;0.93;;;30.60;53.80;;;;;;4918443;29;20044;-73
2021/07/25 13:38:39;;;;;;;2.28;0.80;;;31.30;53.00;;;;;;4935736;29;20031;-73
2021/07/25 13:41:07;;;;;;;2.15;0.73;;;31.00;53.00;;;;;;4934007;29;20075;-73
2021/07/25 13:43:38;;;;;;;3.80;0.98;;;30.60;53.60;;;;;;4931835;29;20496;-72